sensor_id;sensor_type;location;lat;lon;timestamp;temperature;humidity
12817;DHT22;6473;51.552;6.716;2023-05-07T00:00:41;15.30;99.90
12817;DHT22;6473;51.552;6.716;2023-05-07T00:03:08;15.30;99.90
12817;DHT22;6473;51.552;6.716;2023-05-07T00:05:36;15.20;99.90
12817;DHT22;6473;51.552;6.716;2023-05-07T00:08:04;15.10;99.90
12817;DHT22;6473;51.552;6.716;2023-05-07T00:10:31;15.20;99.90
12817;DHT22;6473;51.552;6.716;2023-05-07T00:12:58;15.20;99.90
12817;DHT22;6473;51.552;6.716;2023-05-07T00:15:25;15.20;99.90
12817;DHT22;6473;51.552;6.716;2023-05-07T00:17:53;15.20;99.90
12817;DHT22;6473;51.552;6.716;2023-05-07T00:20:20;15.20;99.90
12817;DHT22;6473;51.552;6.716;2023-05-07T00:22:47;15.10;99.90
12817;DHT22;6473;51.552;6.716;2023-05-07T00:25:14;15.50;99.90
12817;DHT22;6473;51.552;6.716;2023-05-07T00:27:41;15.20;99.90
12817;DHT22;6473;51.552;6.716;2023-05-07T00:30:08;15.10;99.90
12817;DHT22;6473;51.552;6.716;2023-05-07T00:32:35;15.20;99.90
12817;DHT22;6473;51.552;6.716;2023-05-07T00:35:05;15.20;99.90
12817;DHT22;6473;51.552;6.716;2023-05-07T00:37:32;15.20;99.90
12817;DHT22;6473;51.552;6.716;2023-05-07T00:39:59;15.40;99.90
12817;DHT22;6473;51.552;6.716;2023-05-07T00:42:28;15.20;99.90
12817;DHT22;6473;51.552;6.716;2023-05-07T00:44:55;15.20;99.90
12817;DHT22;6473;51.552;6.716;2023-05-07T00:47:22;15.20;99.90
12817;DHT22;6473;51.552;6.716;2023-05-07T00:49:49;15.20;99.90
12817;DHT22;6473;51.552;6.716;2023-05-07T00:52:18;15.10;99.90
12817;DHT22;6473;51.552;6.716;2023-05-07T00:54:47;15.00;99.90
12817;DHT22;6473;51.552;6.716;2023-05-07T00:57:14;15.00;99.90
12817;DHT22;6473;51.552;6.716;2023-05-07T00:59:42;14.90;99.90
12817;DHT22;6473;51.552;6.716;2023-05-07T01:02:09;14.80;99.90
12817;DHT22;6473;51.552;6.716;2023-05-07T01:04:36;14.80;99.90
12817;DHT22;6473;51.552;6.716;2023-05-07T01:07:03;14.80;99.90
12817;DHT22;6473;51.552;6.716;2023-05-07T01:09:33;14.70;99.90
12817;DHT22;6473;51.552;6.716;2023-05-07T01:12:01;14.70;99.90
12817;DHT22;6473;51.552;6.716;2023-05-07T01:14:29;14.70;99.90
12817;DHT22;6473;51.552;6.716;2023-05-07T01:16:58;14.60;99.90
12817;DHT22;6473;51.552;6.716;2023-05-07T01:19:25;14.60;99.90
12817;DHT22;6473;51.552;6.716;2023-05-07T01:22:01;14.60;99.90
12817;DHT22;6473;51.552;6.716;2023-05-07T01:24:31;14.60;99.90
12817;DHT22;6473;51.552;6.716;2023-05-07T01:26:59;14.50;99.90
12817;DHT22;6473;51.552;6.716;2023-05-07T01:29:29;14.50;99.90
12817;DHT22;6473;51.552;6.716;2023-05-07T01:31:57;14.50;99.90
12817;DHT22;6473;51.552;6.716;2023-05-07T01:34:28;14.50;99.90
12817;DHT22;6473;51.552;6.716;2023-05-07T01:36:56;14.40;99.90
12817;DHT22;6473;51.552;6.716;2023-05-07T01:39:25;14.40;99.90
12817;DHT22;6473;51.552;6.716;2023-05-07T01:41:54;14.40;99.90
12817;DHT22;6473;51.552;6.716;2023-05-07T01:44:23;14.40;99.90
12817;DHT22;6473;51.552;6.716;2023-05-07T01:46:50;14.30;99.90
12817;DHT22;6473;51.552;6.716;2023-05-07T01:49:18;14.50;99.90
12817;DHT22;6473;51.552;6.716;2023-05-07T01:51:45;14.50;99.90
12817;DHT22;6473;51.552;6.716;2023-05-07T01:54:12;14.60;99.90
12817;DHT22;6473;51.552;6.716;2023-05-07T01:56:38;14.50;99.90
12817;DHT22;6473;51.552;6.716;2023-05-07T01:59:07;14.40;99.90
12817;DHT22;6473;51.552;6.716;2023-05-07T02:01:34;14.40;99.90
12817;DHT22;6473;51.552;6.716;2023-05-07T02:04:01;14.30;99.90
12817;DHT22;6473;51.552;6.716;2023-05-07T02:06:29;14.40;99.90
12817;DHT22;6473;51.552;6.716;2023-05-07T02:09:01;14.40;99.90
12817;DHT22;6473;51.552;6.716;2023-05-07T02:11:28;14.40;99.90
12817;DHT22;6473;51.552;6.716;2023-05-07T02:13:55;14.20;99.90
12817;DHT22;6473;51.552;6.716;2023-05-07T02:16:24;14.40;99.90
12817;DHT22;6473;51.552;6.716;2023-05-07T02:18:51;14.50;99.90
12817;DHT22;6473;51.552;6.716;2023-05-07T02:21:18;14.50;99.90
12817;DHT22;6473;51.552;6.716;2023-05-07T02:23:45;14.50;99.90
12817;DHT22;6473;51.552;6.716;2023-05-07T02:26:12;14.40;99.90
12817;DHT22;6473;51.552;6.716;2023-05-07T02:28:39;14.40;99.90
12817;DHT22;6473;51.552;6.716;2023-05-07T02:31:06;14.40;99.90
12817;DHT22;6473;51.552;6.716;2023-05-07T02:33:35;14.40;99.90
12817;DHT22;6473;51.552;6.716;2023-05-07T02:36:07;14.40;99.90
12817;DHT22;6473;51.552;6.716;2023-05-07T02:38:37;14.30;99.90
12817;DHT22;6473;51.552;6.716;2023-05-07T02:41:05;14.20;99.90
12817;DHT22;6473;51.552;6.716;2023-05-07T02:46:03;14.10;99.90
12817;DHT22;6473;51.552;6.716;2023-05-07T02:48:30;14.10;99.90
12817;DHT22;6473;51.552;6.716;2023-05-07T02:50:58;14.00;99.90
12817;DHT22;6473;51.552;6.716;2023-05-07T02:53:26;14.00;99.90
12817;DHT22;6473;51.552;6.716;2023-05-07T02:55:56;14.00;99.90
12817;DHT22;6473;51.552;6.716;2023-05-07T03:00:51;14.00;99.90
12817;DHT22;6473;51.552;6.716;2023-05-07T03:03:50;13.90;99.90
12817;DHT22;6473;51.552;6.716;2023-05-07T03:06:18;14.00;99.90
12817;DHT22;6473;51.552;6.716;2023-05-07T03:08:45;14.00;99.90
12817;DHT22;6473;51.552;6.716;2023-05-07T03:11:12;13.90;99.90
12817;DHT22;6473;51.552;6.716;2023-05-07T03:13:40;13.90;99.90
12817;DHT22;6473;51.552;6.716;2023-05-07T03:16:07;14.00;99.90
12817;DHT22;6473;51.552;6.716;2023-05-07T03:18:35;13.90;99.90
12817;DHT22;6473;51.552;6.716;2023-05-07T03:21:02;13.90;99.90
12817;DHT22;6473;51.552;6.716;2023-05-07T03:23:30;14.00;99.90
12817;DHT22;6473;51.552;6.716;2023-05-07T03:25:57;13.90;99.90
12817;DHT22;6473;51.552;6.716;2023-05-07T03:28:23;14.00;99.90
12817;DHT22;6473;51.552;6.716;2023-05-07T03:30:56;14.00;99.90
12817;DHT22;6473;51.552;6.716;2023-05-07T03:33:23;13.90;99.90
12817;DHT22;6473;51.552;6.716;2023-05-07T03:35:50;13.90;99.90
12817;DHT22;6473;51.552;6.716;2023-05-07T03:38:21;13.90;99.90
12817;DHT22;6473;51.552;6.716;2023-05-07T03:40:50;13.90;99.90
12817;DHT22;6473;51.552;6.716;2023-05-07T03:45:49;13.90;99.90
12817;DHT22;6473;51.552;6.716;2023-05-07T03:48:21;13.90;99.90
12817;DHT22;6473;51.552;6.716;2023-05-07T03:50:50;13.80;99.90
12817;DHT22;6473;51.552;6.716;2023-05-07T03:53:19;13.70;99.90
12817;DHT22;6473;51.552;6.716;2023-05-07T03:55:45;13.80;99.90
12817;DHT22;6473;51.552;6.716;2023-05-07T03:58:14;13.80;99.90
12817;DHT22;6473;51.552;6.716;2023-05-07T04:00:41;13.70;99.90
12817;DHT22;6473;51.552;6.716;2023-05-07T04:03:18;13.70;99.90
12817;DHT22;6473;51.552;6.716;2023-05-07T04:05:45;13.70;99.90
12817;DHT22;6473;51.552;6.716;2023-05-07T04:08:12;13.70;99.90
12817;DHT22;6473;51.552;6.716;2023-05-07T04:10:44;13.70;99.90
12817;DHT22;6473;51.552;6.716;2023-05-07T04:13:13;13.70;99.90
12817;DHT22;6473;51.552;6.716;2023-05-07T04:15:41;13.70;99.90
12817;DHT22;6473;51.552;6.716;2023-05-07T04:18:10;13.70;99.90
12817;DHT22;6473;51.552;6.716;2023-05-07T04:20:38;13.70;99.90
12817;DHT22;6473;51.552;6.716;2023-05-07T04:23:09;13.70;99.90
12817;DHT22;6473;51.552;6.716;2023-05-07T04:25:36;13.70;99.90
12817;DHT22;6473;51.552;6.716;2023-05-07T04:28:10;13.70;99.90
12817;DHT22;6473;51.552;6.716;2023-05-07T04:30:40;13.70;99.90
12817;DHT22;6473;51.552;6.716;2023-05-07T04:33:08;13.70;99.90
12817;DHT22;6473;51.552;6.716;2023-05-07T04:35:36;13.70;99.90
12817;DHT22;6473;51.552;6.716;2023-05-07T04:40:32;13.70;99.90
12817;DHT22;6473;51.552;6.716;2023-05-07T04:43:01;13.70;99.90
12817;DHT22;6473;51.552;6.716;2023-05-07T04:45:32;13.70;99.90
12817;DHT22;6473;51.552;6.716;2023-05-07T04:48:00;13.70;99.90
12817;DHT22;6473;51.552;6.716;2023-05-07T04:50:29;13.70;99.90
12817;DHT22;6473;51.552;6.716;2023-05-07T04:53:00;13.70;99.90
12817;DHT22;6473;51.552;6.716;2023-05-07T04:55:28;13.80;99.90
12817;DHT22;6473;51.552;6.716;2023-05-07T04:57:56;13.70;99.90
12817;DHT22;6473;51.552;6.716;2023-05-07T05:00:23;13.70;99.90
12817;DHT22;6473;51.552;6.716;2023-05-07T05:02:52;13.70;99.90
12817;DHT22;6473;51.552;6.716;2023-05-07T05:05:22;13.70;99.90
12817;DHT22;6473;51.552;6.716;2023-05-07T05:07:52;13.70;99.90
12817;DHT22;6473;51.552;6.716;2023-05-07T05:10:20;13.70;99.90
12817;DHT22;6473;51.552;6.716;2023-05-07T05:15:17;13.80;99.90
12817;DHT22;6473;51.552;6.716;2023-05-07T05:17:44;13.80;99.90
12817;DHT22;6473;51.552;6.716;2023-05-07T05:20:11;13.90;99.90
12817;DHT22;6473;51.552;6.716;2023-05-07T05:22:42;14.00;99.90
12817;DHT22;6473;51.552;6.716;2023-05-07T05:25:09;14.20;99.90
12817;DHT22;6473;51.552;6.716;2023-05-07T05:27:36;14.40;99.90
12817;DHT22;6473;51.552;6.716;2023-05-07T05:30:05;14.50;99.90
12817;DHT22;6473;51.552;6.716;2023-05-07T05:32:33;14.60;99.90
12817;DHT22;6473;51.552;6.716;2023-05-07T05:35:00;14.80;99.90
12817;DHT22;6473;51.552;6.716;2023-05-07T05:37:28;15.00;99.90
12817;DHT22;6473;51.552;6.716;2023-05-07T05:39:58;15.30;99.90
12817;DHT22;6473;51.552;6.716;2023-05-07T05:42:26;15.50;99.90
12817;DHT22;6473;51.552;6.716;2023-05-07T05:47:22;15.90;99.90
12817;DHT22;6473;51.552;6.716;2023-05-07T05:49:51;16.00;99.90
12817;DHT22;6473;51.552;6.716;2023-05-07T05:52:18;16.30;99.90
12817;DHT22;6473;51.552;6.716;2023-05-07T05:54:45;16.30;99.90
12817;DHT22;6473;51.552;6.716;2023-05-07T05:57:14;16.30;99.90
12817;DHT22;6473;51.552;6.716;2023-05-07T05:59:41;16.60;99.90
12817;DHT22;6473;51.552;6.716;2023-05-07T06:02:09;17.00;99.90
12817;DHT22;6473;51.552;6.716;2023-05-07T06:04:35;17.30;99.90
12817;DHT22;6473;51.552;6.716;2023-05-07T06:07:03;17.30;99.90
12817;DHT22;6473;51.552;6.716;2023-05-07T06:09:30;17.30;99.90
12817;DHT22;6473;51.552;6.716;2023-05-07T06:11:57;17.60;99.90
12817;DHT22;6473;51.552;6.716;2023-05-07T06:14:25;17.70;99.90
12817;DHT22;6473;51.552;6.716;2023-05-07T06:16:54;17.70;99.90
12817;DHT22;6473;51.552;6.716;2023-05-07T06:19:21;18.10;99.90
12817;DHT22;6473;51.552;6.716;2023-05-07T06:21:50;18.30;99.90
12817;DHT22;6473;51.552;6.716;2023-05-07T06:24:17;18.30;99.90
12817;DHT22;6473;51.552;6.716;2023-05-07T06:26:44;18.40;99.90
12817;DHT22;6473;51.552;6.716;2023-05-07T06:29:11;18.30;99.90
12817;DHT22;6473;51.552;6.716;2023-05-07T06:31:41;18.10;99.90
12817;DHT22;6473;51.552;6.716;2023-05-07T06:34:10;18.00;99.90
12817;DHT22;6473;51.552;6.716;2023-05-07T06:36:40;17.60;99.90
12817;DHT22;6473;51.552;6.716;2023-05-07T06:39:36;17.70;99.90
12817;DHT22;6473;51.552;6.716;2023-05-07T06:42:04;17.30;99.90
12817;DHT22;6473;51.552;6.716;2023-05-07T06:44:32;17.30;99.90
12817;DHT22;6473;51.552;6.716;2023-05-07T06:47:12;17.30;99.90
12817;DHT22;6473;51.552;6.716;2023-05-07T06:49:40;17.30;99.90
12817;DHT22;6473;51.552;6.716;2023-05-07T06:52:07;17.50;99.90
12817;DHT22;6473;51.552;6.716;2023-05-07T06:54:34;17.50;99.90
12817;DHT22;6473;51.552;6.716;2023-05-07T06:57:01;17.60;99.90
12817;DHT22;6473;51.552;6.716;2023-05-07T06:59:29;17.80;99.90
12817;DHT22;6473;51.552;6.716;2023-05-07T07:01:56;17.80;99.90
12817;DHT22;6473;51.552;6.716;2023-05-07T07:04:24;18.20;99.90
12817;DHT22;6473;51.552;6.716;2023-05-07T07:06:59;18.10;99.90
12817;DHT22;6473;51.552;6.716;2023-05-07T07:09:26;17.80;99.90
12817;DHT22;6473;51.552;6.716;2023-05-07T07:11:53;17.80;99.90
12817;DHT22;6473;51.552;6.716;2023-05-07T07:14:21;17.50;99.90
12817;DHT22;6473;51.552;6.716;2023-05-07T07:16:50;17.50;99.90
12817;DHT22;6473;51.552;6.716;2023-05-07T07:19:19;17.70;99.90
12817;DHT22;6473;51.552;6.716;2023-05-07T07:21:52;18.00;99.90
12817;DHT22;6473;51.552;6.716;2023-05-07T07:24:19;17.90;99.90
12817;DHT22;6473;51.552;6.716;2023-05-07T07:26:48;17.80;99.90
12817;DHT22;6473;51.552;6.716;2023-05-07T07:29:16;18.40;99.90
12817;DHT22;6473;51.552;6.716;2023-05-07T07:31:44;18.30;99.90
12817;DHT22;6473;51.552;6.716;2023-05-07T07:34:12;18.40;99.90
12817;DHT22;6473;51.552;6.716;2023-05-07T07:36:39;18.60;99.90
12817;DHT22;6473;51.552;6.716;2023-05-07T07:39:07;18.80;99.90
12817;DHT22;6473;51.552;6.716;2023-05-07T07:41:36;18.90;99.90
12817;DHT22;6473;51.552;6.716;2023-05-07T07:44:03;18.80;99.90
12817;DHT22;6473;51.552;6.716;2023-05-07T07:46:34;18.80;99.90
12817;DHT22;6473;51.552;6.716;2023-05-07T07:49:02;18.80;99.90
12817;DHT22;6473;51.552;6.716;2023-05-07T07:51:29;18.90;99.90
12817;DHT22;6473;51.552;6.716;2023-05-07T07:53:58;18.70;99.90
12817;DHT22;6473;51.552;6.716;2023-05-07T07:56:27;18.60;99.90
12817;DHT22;6473;51.552;6.716;2023-05-07T07:58:54;18.60;99.90
12817;DHT22;6473;51.552;6.716;2023-05-07T08:01:21;18.80;99.90
12817;DHT22;6473;51.552;6.716;2023-05-07T08:03:48;18.90;99.90
12817;DHT22;6473;51.552;6.716;2023-05-07T08:06:16;19.20;99.90
12817;DHT22;6473;51.552;6.716;2023-05-07T08:08:44;19.20;99.90
12817;DHT22;6473;51.552;6.716;2023-05-07T08:11:11;19.30;99.90
12817;DHT22;6473;51.552;6.716;2023-05-07T08:13:39;19.30;99.90
12817;DHT22;6473;51.552;6.716;2023-05-07T08:16:06;19.30;99.90
12817;DHT22;6473;51.552;6.716;2023-05-07T08:18:35;19.50;99.90
12817;DHT22;6473;51.552;6.716;2023-05-07T08:21:03;19.80;99.90
12817;DHT22;6473;51.552;6.716;2023-05-07T08:23:31;20.10;99.90
12817;DHT22;6473;51.552;6.716;2023-05-07T08:25:59;20.20;99.90
12817;DHT22;6473;51.552;6.716;2023-05-07T08:28:29;20.30;99.90
12817;DHT22;6473;51.552;6.716;2023-05-07T08:30:57;20.40;99.90
12817;DHT22;6473;51.552;6.716;2023-05-07T08:33:27;20.10;99.90
12817;DHT22;6473;51.552;6.716;2023-05-07T08:35:56;20.20;99.90
12817;DHT22;6473;51.552;6.716;2023-05-07T08:38:23;20.00;99.90
12817;DHT22;6473;51.552;6.716;2023-05-07T08:40:50;20.10;99.90
12817;DHT22;6473;51.552;6.716;2023-05-07T08:43:19;20.10;99.90
12817;DHT22;6473;51.552;6.716;2023-05-07T08:45:49;19.90;99.90
12817;DHT22;6473;51.552;6.716;2023-05-07T08:48:22;19.60;99.90
12817;DHT22;6473;51.552;6.716;2023-05-07T08:50:58;20.00;99.90
12817;DHT22;6473;51.552;6.716;2023-05-07T08:53:25;20.20;99.90
12817;DHT22;6473;51.552;6.716;2023-05-07T08:55:53;20.40;99.90
12817;DHT22;6473;51.552;6.716;2023-05-07T08:58:21;20.70;99.90
12817;DHT22;6473;51.552;6.716;2023-05-07T09:00:48;20.90;99.90
12817;DHT22;6473;51.552;6.716;2023-05-07T09:03:16;21.20;99.90
12817;DHT22;6473;51.552;6.716;2023-05-07T09:05:48;21.00;99.90
12817;DHT22;6473;51.552;6.716;2023-05-07T09:08:17;21.10;99.90
12817;DHT22;6473;51.552;6.716;2023-05-07T09:10:48;20.70;99.90
12817;DHT22;6473;51.552;6.716;2023-05-07T09:13:16;20.70;99.90
12817;DHT22;6473;51.552;6.716;2023-05-07T09:15:44;21.50;99.90
12817;DHT22;6473;51.552;6.716;2023-05-07T09:18:12;22.10;99.90
12817;DHT22;6473;51.552;6.716;2023-05-07T09:20:40;22.00;93.40
12817;DHT22;6473;51.552;6.716;2023-05-07T09:23:09;21.90;93.80
12817;DHT22;6473;51.552;6.716;2023-05-07T09:25:37;21.80;91.80
12817;DHT22;6473;51.552;6.716;2023-05-07T09:28:11;22.00;90.30
12817;DHT22;6473;51.552;6.716;2023-05-07T09:30:38;21.90;91.90
12817;DHT22;6473;51.552;6.716;2023-05-07T09:33:08;22.50;93.30
12817;DHT22;6473;51.552;6.716;2023-05-07T09:35:39;23.40;79.10
12817;DHT22;6473;51.552;6.716;2023-05-07T09:38:12;23.30;67.90
12817;DHT22;6473;51.552;6.716;2023-05-07T09:40:40;23.60;73.60
12817;DHT22;6473;51.552;6.716;2023-05-07T09:43:12;23.90;52.90
12817;DHT22;6473;51.552;6.716;2023-05-07T09:45:52;24.00;41.10
12817;DHT22;6473;51.552;6.716;2023-05-07T09:48:23;24.10;58.30
12817;DHT22;6473;51.552;6.716;2023-05-07T09:50:55;24.10;47.30
12817;DHT22;6473;51.552;6.716;2023-05-07T09:53:29;24.50;61.60
12817;DHT22;6473;51.552;6.716;2023-05-07T09:55:58;25.10;42.00
12817;DHT22;6473;51.552;6.716;2023-05-07T09:58:26;25.80;33.80
12817;DHT22;6473;51.552;6.716;2023-05-07T10:00:54;26.20;16.90
12817;DHT22;6473;51.552;6.716;2023-05-07T10:03:24;26.30;7.30
12817;DHT22;6473;51.552;6.716;2023-05-07T10:05:59;27.00;1.00
12817;DHT22;6473;51.552;6.716;2023-05-07T10:08:28;27.50;1.00
12817;DHT22;6473;51.552;6.716;2023-05-07T10:10:59;26.60;1.00
12817;DHT22;6473;51.552;6.716;2023-05-07T10:13:29;27.10;1.00
12817;DHT22;6473;51.552;6.716;2023-05-07T10:15:58;27.40;1.00
12817;DHT22;6473;51.552;6.716;2023-05-07T10:18:31;27.10;1.00
12817;DHT22;6473;51.552;6.716;2023-05-07T10:21:08;27.20;1.00
12817;DHT22;6473;51.552;6.716;2023-05-07T10:23:40;27.40;1.00
12817;DHT22;6473;51.552;6.716;2023-05-07T10:26:08;27.80;1.00
12817;DHT22;6473;51.552;6.716;2023-05-07T10:28:38;27.90;1.00
12817;DHT22;6473;51.552;6.716;2023-05-07T10:31:17;28.10;1.00
12817;DHT22;6473;51.552;6.716;2023-05-07T10:33:49;28.50;1.00
12817;DHT22;6473;51.552;6.716;2023-05-07T10:36:20;27.20;1.00
12817;DHT22;6473;51.552;6.716;2023-05-07T10:38:50;27.40;1.00
12817;DHT22;6473;51.552;6.716;2023-05-07T10:41:17;28.60;1.00
12817;DHT22;6473;51.552;6.716;2023-05-07T10:43:45;28.10;1.00
12817;DHT22;6473;51.552;6.716;2023-05-07T10:46:22;27.10;1.00
12817;DHT22;6473;51.552;6.716;2023-05-07T10:49:11;27.60;1.00
12817;DHT22;6473;51.552;6.716;2023-05-07T10:52:14;28.70;1.00
12817;DHT22;6473;51.552;6.716;2023-05-07T10:55:18;27.50;1.00
12817;DHT22;6473;51.552;6.716;2023-05-07T10:58:26;27.30;1.00
12817;DHT22;6473;51.552;6.716;2023-05-07T11:01:01;27.30;1.00
12817;DHT22;6473;51.552;6.716;2023-05-07T11:04:12;27.60;1.00
12817;DHT22;6473;51.552;6.716;2023-05-07T11:06:39;27.40;1.00
12817;DHT22;6473;51.552;6.716;2023-05-07T11:09:09;26.50;1.00
12817;DHT22;6473;51.552;6.716;2023-05-07T11:11:51;26.40;1.00
12817;DHT22;6473;51.552;6.716;2023-05-07T11:14:43;26.20;1.00
12817;DHT22;6473;51.552;6.716;2023-05-07T11:17:29;25.40;1.00
12817;DHT22;6473;51.552;6.716;2023-05-07T11:20:03;25.70;1.00
12817;DHT22;6473;51.552;6.716;2023-05-07T11:22:53;25.60;1.00
12817;DHT22;6473;51.552;6.716;2023-05-07T11:25:45;25.60;1.00
12817;DHT22;6473;51.552;6.716;2023-05-07T11:28:21;27.10;1.00
12817;DHT22;6473;51.552;6.716;2023-05-07T11:30:59;27.40;1.00
12817;DHT22;6473;51.552;6.716;2023-05-07T11:33:26;28.20;1.00
12817;DHT22;6473;51.552;6.716;2023-05-07T11:35:55;28.60;1.00
12817;DHT22;6473;51.552;6.716;2023-05-07T11:38:28;28.30;1.00
12817;DHT22;6473;51.552;6.716;2023-05-07T11:40:57;28.80;1.00
12817;DHT22;6473;51.552;6.716;2023-05-07T11:43:25;28.90;1.00
12817;DHT22;6473;51.552;6.716;2023-05-07T11:45:52;28.00;1.00
12817;DHT22;6473;51.552;6.716;2023-05-07T11:48:21;27.20;1.00
12817;DHT22;6473;51.552;6.716;2023-05-07T11:50:52;26.50;1.00
12817;DHT22;6473;51.552;6.716;2023-05-07T11:53:19;25.40;1.00
12817;DHT22;6473;51.552;6.716;2023-05-07T11:55:46;24.50;1.00
12817;DHT22;6473;51.552;6.716;2023-05-07T11:58:21;24.10;1.00
12817;DHT22;6473;51.552;6.716;2023-05-07T12:00:50;24.40;1.00
12817;DHT22;6473;51.552;6.716;2023-05-07T12:03:17;24.70;1.00
12817;DHT22;6473;51.552;6.716;2023-05-07T12:05:44;25.00;1.00
12817;DHT22;6473;51.552;6.716;2023-05-07T12:16:21;24.40;1.00
12817;DHT22;6473;51.552;6.716;2023-05-07T12:18:48;24.40;1.00
12817;DHT22;6473;51.552;6.716;2023-05-07T12:21:15;24.50;1.00
12817;DHT22;6473;51.552;6.716;2023-05-07T12:23:43;24.30;1.00
12817;DHT22;6473;51.552;6.716;2023-05-07T12:26:10;24.10;1.00
12817;DHT22;6473;51.552;6.716;2023-05-07T12:28:37;23.90;1.00
12817;DHT22;6473;51.552;6.716;2023-05-07T12:31:05;23.80;1.00
12817;DHT22;6473;51.552;6.716;2023-05-07T12:33:35;23.40;12.90
12817;DHT22;6473;51.552;6.716;2023-05-07T12:36:06;22.70;39.70
12817;DHT22;6473;51.552;6.716;2023-05-07T12:38:41;22.20;52.00
12817;DHT22;6473;51.552;6.716;2023-05-07T12:41:09;23.30;77.70
12817;DHT22;6473;51.552;6.716;2023-05-07T12:43:36;22.00;98.20
12817;DHT22;6473;51.552;6.716;2023-05-07T12:46:05;22.00;99.90
12817;DHT22;6473;51.552;6.716;2023-05-07T12:48:35;21.90;99.90
12817;DHT22;6473;51.552;6.716;2023-05-07T12:51:02;21.60;99.90
12817;DHT22;6473;51.552;6.716;2023-05-07T12:53:29;21.60;99.90
12817;DHT22;6473;51.552;6.716;2023-05-07T12:55:57;21.20;99.90
12817;DHT22;6473;51.552;6.716;2023-05-07T12:58:26;20.90;99.90
12817;DHT22;6473;51.552;6.716;2023-05-07T13:00:53;20.30;99.90
12817;DHT22;6473;51.552;6.716;2023-05-07T13:03:25;20.30;99.90
12817;DHT22;6473;51.552;6.716;2023-05-07T13:05:55;20.20;99.90
12817;DHT22;6473;51.552;6.716;2023-05-07T13:08:26;20.10;99.90
12817;DHT22;6473;51.552;6.716;2023-05-07T13:10:53;20.90;99.90
12817;DHT22;6473;51.552;6.716;2023-05-07T13:13:21;20.10;99.90
12817;DHT22;6473;51.552;6.716;2023-05-07T13:15:48;20.10;99.90
12817;DHT22;6473;51.552;6.716;2023-05-07T13:18:15;20.30;99.90
12817;DHT22;6473;51.552;6.716;2023-05-07T13:20:42;20.50;99.90
12817;DHT22;6473;51.552;6.716;2023-05-07T13:23:10;22.00;99.90
12817;DHT22;6473;51.552;6.716;2023-05-07T13:25:37;20.60;99.90
12817;DHT22;6473;51.552;6.716;2023-05-07T13:28:04;20.80;99.90
12817;DHT22;6473;51.552;6.716;2023-05-07T13:30:31;20.90;99.90
12817;DHT22;6473;51.552;6.716;2023-05-07T13:32:58;20.90;99.90
12817;DHT22;6473;51.552;6.716;2023-05-07T13:35:25;20.80;99.90
12817;DHT22;6473;51.552;6.716;2023-05-07T13:37:52;20.90;99.90
12817;DHT22;6473;51.552;6.716;2023-05-07T13:40:21;20.80;99.90
12817;DHT22;6473;51.552;6.716;2023-05-07T13:42:48;20.70;99.90
12817;DHT22;6473;51.552;6.716;2023-05-07T13:45:16;21.70;99.90
12817;DHT22;6473;51.552;6.716;2023-05-07T13:47:43;20.60;99.90
12817;DHT22;6473;51.552;6.716;2023-05-07T13:50:11;20.50;99.90
12817;DHT22;6473;51.552;6.716;2023-05-07T13:52:40;20.50;99.90
12817;DHT22;6473;51.552;6.716;2023-05-07T13:55:08;20.40;99.90
12817;DHT22;6473;51.552;6.716;2023-05-07T13:57:37;20.40;99.90
12817;DHT22;6473;51.552;6.716;2023-05-07T14:00:05;20.80;99.90
12817;DHT22;6473;51.552;6.716;2023-05-07T14:02:41;20.20;99.90
12817;DHT22;6473;51.552;6.716;2023-05-07T14:05:08;20.10;99.90
12817;DHT22;6473;51.552;6.716;2023-05-07T14:07:35;20.10;99.90
12817;DHT22;6473;51.552;6.716;2023-05-07T14:10:03;20.20;99.90
12817;DHT22;6473;51.552;6.716;2023-05-07T14:12:30;20.10;99.90
12817;DHT22;6473;51.552;6.716;2023-05-07T14:14:58;20.00;99.90
12817;DHT22;6473;51.552;6.716;2023-05-07T14:17:25;20.00;99.90
12817;DHT22;6473;51.552;6.716;2023-05-07T14:19:52;19.90;99.90
12817;DHT22;6473;51.552;6.716;2023-05-07T14:22:20;20.00;99.90
12817;DHT22;6473;51.552;6.716;2023-05-07T14:24:48;19.90;99.90
12817;DHT22;6473;51.552;6.716;2023-05-07T14:27:15;19.80;99.90
12817;DHT22;6473;51.552;6.716;2023-05-07T14:29:41;19.70;99.90
12817;DHT22;6473;51.552;6.716;2023-05-07T14:32:10;19.70;99.90
12817;DHT22;6473;51.552;6.716;2023-05-07T14:34:36;19.70;99.90
12817;DHT22;6473;51.552;6.716;2023-05-07T14:37:03;19.50;99.90
12817;DHT22;6473;51.552;6.716;2023-05-07T14:39:30;19.20;99.90
12817;DHT22;6473;51.552;6.716;2023-05-07T14:41:57;19.20;99.90
12817;DHT22;6473;51.552;6.716;2023-05-07T14:44:24;18.90;99.90
12817;DHT22;6473;51.552;6.716;2023-05-07T14:46:51;18.70;99.90
12817;DHT22;6473;51.552;6.716;2023-05-07T14:49:19;19.90;99.90
12817;DHT22;6473;51.552;6.716;2023-05-07T14:51:47;18.50;99.90
12817;DHT22;6473;51.552;6.716;2023-05-07T14:54:14;18.40;99.90
12817;DHT22;6473;51.552;6.716;2023-05-07T14:56:41;18.20;99.90
12817;DHT22;6473;51.552;6.716;2023-05-07T14:59:08;18.20;99.90
12817;DHT22;6473;51.552;6.716;2023-05-07T15:01:36;18.20;99.90
12817;DHT22;6473;51.552;6.716;2023-05-07T15:04:03;18.30;99.90
12817;DHT22;6473;51.552;6.716;2023-05-07T15:06:31;18.40;99.90
12817;DHT22;6473;51.552;6.716;2023-05-07T15:08:58;18.60;99.90
12817;DHT22;6473;51.552;6.716;2023-05-07T15:11:25;18.60;99.90
12817;DHT22;6473;51.552;6.716;2023-05-07T15:13:52;18.80;99.90
12817;DHT22;6473;51.552;6.716;2023-05-07T15:16:19;18.90;99.90
12817;DHT22;6473;51.552;6.716;2023-05-07T15:18:47;18.80;99.90
12817;DHT22;6473;51.552;6.716;2023-05-07T15:21:14;18.90;99.90
12817;DHT22;6473;51.552;6.716;2023-05-07T15:23:42;18.80;99.90
12817;DHT22;6473;51.552;6.716;2023-05-07T15:26:10;18.80;99.90
12817;DHT22;6473;51.552;6.716;2023-05-07T15:28:37;18.90;99.90
12817;DHT22;6473;51.552;6.716;2023-05-07T15:38:19;18.70;99.90
12817;DHT22;6473;51.552;6.716;2023-05-07T15:40:46;18.60;99.90
12817;DHT22;6473;51.552;6.716;2023-05-07T15:43:13;18.60;99.90
12817;DHT22;6473;51.552;6.716;2023-05-07T15:45:40;18.70;99.90
12817;DHT22;6473;51.552;6.716;2023-05-07T15:48:08;20.00;99.90
12817;DHT22;6473;51.552;6.716;2023-05-07T15:50:35;18.50;99.90
12817;DHT22;6473;51.552;6.716;2023-05-07T15:53:02;18.40;99.90
12817;DHT22;6473;51.552;6.716;2023-05-07T15:55:31;18.30;99.90
12817;DHT22;6473;51.552;6.716;2023-05-07T15:57:58;18.40;99.90
12817;DHT22;6473;51.552;6.716;2023-05-07T16:00:25;18.30;99.90
12817;DHT22;6473;51.552;6.716;2023-05-07T16:02:52;18.40;99.90
12817;DHT22;6473;51.552;6.716;2023-05-07T16:05:19;18.40;99.90
12817;DHT22;6473;51.552;6.716;2023-05-07T16:07:46;18.40;99.90
12817;DHT22;6473;51.552;6.716;2023-05-07T16:10:13;18.30;99.90
12817;DHT22;6473;51.552;6.716;2023-05-07T16:12:41;18.40;99.90
12817;DHT22;6473;51.552;6.716;2023-05-07T16:15:09;18.50;99.90
12817;DHT22;6473;51.552;6.716;2023-05-07T16:17:36;18.70;99.90
12817;DHT22;6473;51.552;6.716;2023-05-07T16:20:04;19.80;99.90
12817;DHT22;6473;51.552;6.716;2023-05-07T16:22:33;19.00;99.90
12817;DHT22;6473;51.552;6.716;2023-05-07T16:25:01;19.20;99.90
12817;DHT22;6473;51.552;6.716;2023-05-07T16:27:29;19.40;99.90
12817;DHT22;6473;51.552;6.716;2023-05-07T16:29:57;19.40;99.90